createdAt,value
2022-10-25T00:03:59.999Z,14.20
2022-10-25T00:09:01.856Z,14.20
2022-10-25T00:14:06.610Z,14.20
2022-10-25T00:19:08.437Z,14.20
2022-10-25T00:24:13.048Z,14.20
2022-10-25T00:29:16.339Z,14.20
2022-10-25T00:34:18.147Z,14.10
2022-10-25T00:39:19.972Z,14.10
2022-10-25T00:44:39.854Z,14.20
2022-10-25T00:49:43.123Z,14.10
2022-10-25T00:54:52.632Z,14.10
2022-10-25T00:59:54.510Z,14.10
2022-10-25T01:04:56.462Z,14.20
2022-10-25T01:09:58.388Z,14.10
2022-10-25T01:15:01.341Z,14.10
2022-10-25T01:20:18.187Z,14.10
2022-10-25T01:26:10.598Z,14.10
2022-10-25T01:31:24.877Z,14.10
2022-10-25T01:36:51.735Z,14.00
2022-10-25T01:42:20.005Z,13.90
2022-10-25T01:47:26.309Z,13.90
2022-10-25T01:52:28.451Z,13.80
2022-10-25T01:57:48.814Z,13.60
2022-10-25T02:03:14.580Z,13.50
2022-10-25T02:08:55.014Z,13.40
2022-10-25T02:14:02.583Z,13.40
2022-10-25T02:19:07.412Z,13.40
2022-10-25T02:24:16.772Z,13.30
2022-10-25T02:29:19.762Z,13.20
2022-10-25T02:34:21.855Z,13.30
2022-10-25T02:39:27.762Z,13.30
2022-10-25T02:44:32.926Z,13.40
2022-10-25T02:49:34.802Z,13.30
2022-10-25T02:54:36.626Z,13.40
2022-10-25T02:59:38.444Z,13.40
2022-10-25T03:04:40.235Z,13.30
2022-10-25T03:09:42.040Z,13.30
2022-10-25T03:14:43.871Z,13.30
2022-10-25T03:19:45.725Z,13.30
2022-10-25T03:24:47.588Z,13.30
2022-10-25T03:29:49.364Z,13.30
2022-10-25T03:34:51.187Z,13.40
2022-10-25T03:39:54.211Z,13.40
2022-10-25T03:44:56.049Z,13.30
2022-10-25T03:49:57.872Z,13.30
2022-10-25T03:54:59.693Z,13.20
2022-10-25T04:00:01.714Z,13.20
2022-10-25T04:05:13.568Z,13.20
2022-10-25T04:10:17.450Z,13.10
2022-10-25T04:15:19.440Z,13.00
2022-10-25T04:20:21.701Z,12.90
2022-10-25T04:25:28.244Z,12.90
2022-10-25T04:30:31.958Z,12.90
2022-10-25T04:35:35.574Z,12.90
2022-10-25T04:40:37.446Z,12.90
2022-10-25T04:45:39.276Z,12.90
2022-10-25T04:50:41.101Z,12.90
2022-10-25T04:55:43.176Z,12.90
2022-10-25T05:00:47.336Z,12.90
2022-10-25T05:05:49.129Z,12.80
2022-10-25T05:10:55.087Z,12.90
2022-10-25T05:15:57.825Z,12.80
2022-10-25T05:21:04.299Z,12.90
2022-10-25T05:26:10.396Z,12.80
2022-10-25T05:31:24.664Z,12.80
2022-10-25T05:36:28.469Z,12.70
2022-10-25T05:41:33.204Z,12.60
2022-10-25T05:46:37.989Z,12.60
2022-10-25T05:51:39.800Z,12.60
2022-10-25T05:56:42.461Z,12.60
2022-10-25T06:01:47.105Z,12.80
2022-10-25T06:06:52.117Z,13.00
2022-10-25T06:11:53.998Z,13.20
2022-10-25T06:16:55.815Z,13.40
2022-10-25T06:21:57.651Z,13.40
2022-10-25T06:26:59.520Z,13.50
2022-10-25T06:32:01.354Z,13.80
2022-10-25T06:37:04.109Z,14.00
2022-10-25T06:42:06.031Z,14.50
2022-10-25T06:47:23.421Z,14.50
2022-10-25T06:52:25.256Z,14.70
2022-10-25T06:57:27.429Z,14.60
2022-10-25T07:02:29.330Z,14.60
2022-10-25T07:07:31.235Z,15.20
2022-10-25T07:12:38.117Z,15.60
2022-10-25T07:17:39.953Z,15.80
2022-10-25T07:22:41.749Z,15.60
2022-10-25T07:27:43.746Z,15.30
2022-10-25T07:32:45.584Z,14.90
2022-10-25T07:37:47.551Z,14.70
2022-10-25T07:42:49.940Z,14.70
2022-10-25T07:47:52.339Z,14.60
2022-10-25T07:52:55.254Z,14.70
2022-10-25T07:58:03.943Z,15.00
2022-10-25T08:03:05.853Z,15.30
2022-10-25T08:08:07.764Z,15.30
2022-10-25T08:13:09.573Z,15.20
2022-10-25T08:18:11.458Z,15.20
2022-10-25T08:23:13.827Z,15.30
2022-10-25T08:28:15.628Z,15.50
2022-10-25T08:33:17.839Z,15.70
2022-10-25T08:38:19.696Z,15.90
2022-10-25T08:43:31.473Z,16.00
2022-10-25T08:48:38.811Z,16.00
2022-10-25T08:53:48.550Z,16.10
2022-10-25T08:58:55.376Z,16.20
2022-10-25T09:03:59.924Z,16.60
2022-10-25T09:09:34.806Z,16.50
2022-10-25T09:14:42.856Z,16.30
2022-10-25T09:20:41.522Z,16.10
2022-10-25T09:26:07.495Z,15.70
2022-10-25T09:31:14.271Z,15.40
2022-10-25T09:36:16.102Z,15.10
2022-10-25T09:41:37.621Z,15.10
2022-10-25T09:46:51.727Z,15.60
2022-10-25T09:52:03.951Z,15.90
2022-10-25T09:57:05.848Z,15.40
2022-10-25T10:02:15.487Z,15.20
2022-10-25T10:07:27.893Z,14.90
2022-10-25T10:12:56.495Z,15.00
2022-10-25T10:18:18.914Z,14.80
2022-10-25T10:23:20.779Z,14.80
2022-10-25T10:28:22.787Z,14.70
2022-10-25T10:33:30.203Z,14.70
2022-10-25T10:38:32.009Z,14.60
2022-10-25T10:43:34.297Z,14.60
2022-10-25T10:48:42.036Z,14.80
2022-10-25T10:53:45.079Z,14.80
2022-10-25T10:58:53.457Z,14.50
2022-10-25T11:04:00.914Z,14.90
2022-10-25T11:09:20.282Z,15.20
2022-10-25T11:14:22.202Z,15.10
2022-10-25T11:19:29.936Z,15.00
2022-10-25T11:24:48.215Z,15.30
2022-10-25T11:29:52.860Z,16.30
2022-10-25T11:35:18.727Z,17.00
2022-10-25T11:40:28.414Z,17.20
2022-10-25T11:45:46.883Z,17.20
2022-10-25T11:51:00.639Z,18.20
2022-10-25T11:56:19.910Z,18.20
2022-10-25T12:01:51.253Z,18.90
2022-10-25T12:07:11.683Z,18.40
2022-10-25T12:12:18.801Z,18.30
2022-10-25T12:17:30.364Z,18.60
2022-10-25T12:22:42.122Z,19.30
2022-10-25T12:27:47.657Z,19.50
2022-10-25T12:33:29.272Z,18.80
2022-10-25T12:38:36.819Z,19.10
2022-10-25T12:43:59.374Z,18.70
2022-10-25T12:49:33.703Z,18.60
2022-10-25T12:55:05.844Z,18.80
2022-10-25T13:05:51.792Z,18.40
2022-10-25T13:11:02.650Z,18.50
2022-10-25T13:16:06.712Z,18.40
2022-10-25T13:21:53.412Z,18.30
2022-10-25T13:27:14.083Z,17.70
2022-10-25T13:32:20.406Z,18.10
2022-10-25T13:37:34.470Z,18.30
2022-10-25T13:42:39.459Z,18.00
2022-10-25T13:47:47.316Z,17.90
2022-10-25T13:53:05.578Z,17.90
2022-10-25T13:58:31.730Z,18.30
2022-10-25T14:03:45.629Z,18.20
2022-10-25T14:08:56.060Z,17.30
2022-10-25T14:14:24.360Z,16.80
2022-10-25T14:19:45.327Z,16.60
2022-10-25T14:24:53.029Z,16.70
2022-10-25T14:30:12.814Z,16.60
2022-10-25T14:35:14.783Z,16.50
2022-10-25T14:40:25.777Z,16.30
2022-10-25T14:45:27.595Z,16.20
2022-10-25T14:50:29.490Z,15.50
2022-10-25T14:55:32.793Z,15.50
2022-10-25T15:00:34.683Z,15.60
2022-10-25T15:05:41.414Z,15.30
2022-10-25T15:10:45.241Z,15.10
2022-10-25T15:15:49.594Z,15.00
2022-10-25T15:21:07.313Z,14.70
2022-10-25T15:26:27.501Z,14.40
2022-10-25T15:31:32.205Z,14.00
2022-10-25T15:36:34.252Z,13.90
2022-10-25T15:41:36.179Z,13.80
2022-10-25T15:46:38.222Z,13.70
2022-10-25T15:51:43.398Z,13.70
2022-10-25T15:56:45.324Z,13.70
2022-10-25T16:01:53.527Z,13.60
2022-10-25T16:06:55.443Z,13.60
2022-10-25T16:11:57.305Z,13.50
2022-10-25T16:16:59.363Z,13.50
2022-10-25T16:22:01.970Z,13.50
2022-10-25T16:27:04.059Z,13.40
2022-10-25T16:32:06.218Z,13.40
2022-10-25T16:37:10.661Z,13.50
2022-10-25T16:42:31.512Z,13.50
2022-10-25T16:47:33.489Z,13.40
2022-10-25T16:52:35.770Z,13.40
2022-10-25T16:57:37.615Z,13.50
2022-10-25T17:02:39.483Z,13.60
2022-10-25T17:07:43.180Z,13.50
2022-10-25T17:12:47.293Z,13.40
2022-10-25T17:17:49.523Z,13.30
2022-10-25T17:22:51.672Z,13.20
2022-10-25T17:27:54.318Z,13.00
2022-10-25T17:32:56.219Z,13.00
2022-10-25T17:37:58.221Z,12.90
2022-10-25T17:43:00.058Z,12.80
2022-10-25T17:48:02.728Z,12.70
2022-10-25T17:53:04.566Z,12.60
2022-10-25T17:58:06.909Z,12.60
2022-10-25T18:03:08.740Z,12.50
2022-10-25T18:08:11.157Z,12.40
2022-10-25T18:13:13.024Z,12.40
2022-10-25T18:18:14.948Z,12.30
2022-10-25T18:23:17.811Z,12.20
2022-10-25T18:28:20.233Z,12.10
2022-10-25T18:33:25.004Z,12.10
2022-10-25T18:38:27.542Z,12.10
2022-10-25T18:43:29.457Z,12.10
2022-10-25T18:48:31.378Z,12.00
2022-10-25T18:53:35.499Z,12.00
2022-10-25T18:58:37.997Z,11.90
2022-10-25T19:03:40.693Z,11.90
2022-10-25T19:08:43.048Z,11.90
2022-10-25T19:13:47.578Z,11.90
2022-10-25T19:18:52.743Z,11.90
2022-10-25T19:23:54.583Z,11.90
2022-10-25T19:29:01.153Z,11.90
2022-10-25T19:34:03.313Z,12.00
2022-10-25T19:39:05.401Z,12.10
2022-10-25T19:44:07.299Z,12.20
2022-10-25T19:49:10.953Z,12.30
2022-10-25T19:54:12.974Z,12.40
2022-10-25T19:59:14.914Z,12.40
2022-10-25T20:04:16.822Z,12.40
2022-10-25T20:09:18.860Z,12.40
2022-10-25T20:14:20.663Z,12.30
2022-10-25T20:19:22.570Z,12.30
2022-10-25T20:24:24.519Z,12.20
2022-10-25T20:29:26.906Z,12.20
2022-10-25T20:34:28.763Z,12.10
2022-10-25T20:39:30.721Z,11.90
2022-10-25T20:44:32.531Z,11.90
2022-10-25T20:49:34.437Z,11.80
2022-10-25T20:54:36.252Z,11.70
2022-10-25T20:59:38.064Z,11.70
2022-10-25T21:04:53.539Z,11.60
2022-10-25T21:09:55.891Z,11.50
2022-10-25T21:14:57.771Z,11.50
2022-10-25T21:19:59.579Z,11.60
2022-10-25T21:25:01.460Z,11.50
2022-10-25T21:30:04.086Z,11.50
2022-10-25T21:35:06.069Z,11.50
2022-10-25T21:40:08.406Z,11.40
2022-10-25T21:45:11.468Z,11.40
2022-10-25T21:50:13.207Z,11.40
2022-10-25T21:55:15.053Z,11.50
2022-10-25T22:00:16.995Z,11.50
2022-10-25T22:05:18.856Z,11.50
2022-10-25T22:10:20.680Z,11.60
2022-10-25T22:15:22.480Z,11.60
2022-10-25T22:20:24.282Z,11.60
2022-10-25T22:25:26.189Z,11.60
2022-10-25T22:30:27.988Z,11.50
2022-10-25T22:35:29.854Z,11.40
2022-10-25T22:40:31.659Z,11.30
2022-10-25T22:45:34.999Z,11.20
2022-10-25T22:50:36.838Z,11.10
2022-10-25T22:55:38.675Z,11.10
2022-10-25T23:00:40.458Z,11.10
2022-10-25T23:05:42.402Z,11.10
2022-10-25T23:10:44.200Z,11.20
2022-10-25T23:15:46.008Z,11.30
2022-10-25T23:20:56.543Z,11.40
2022-10-25T23:26:02.309Z,11.40
2022-10-25T23:31:06.529Z,11.40
2022-10-25T23:36:12.800Z,11.50
2022-10-25T23:41:15.263Z,11.50
2022-10-25T23:46:17.382Z,11.50
2022-10-25T23:51:19.312Z,11.40
2022-10-25T23:56:21.176Z,11.20
